Time;durP1;ratioP1;P1;durP2;ratioP2;P2;SDS_P1;SDS_P2;PMS_P1;PMS_P2;Temp;Humidity;BMP_temperature;BMP_pressure;BME280_temperature;BME280_humidity;BME280_pressure;Samples;Min_cycle;Max_cycle;Signal;HPM_P1;HPM_P2
2021/06/06 00:00:42;;;;;;;52.40;46.73;;;;;;;-144.99;88.60;52209.63;5070225;28;20218;-75
2021/06/06 00:03:21;;;;;;;49.43;44.83;;;;;;;-144.99;89.46;52234.09;5062833;28;20337;-75
2021/06/06 00:06:00;;;;;;;47.23;42.73;;;;;;;-144.99;91.35;52154.59;5072556;28;20235;-74
2021/06/06 00:08:34;;;;;;;51.37;46.27;;;;;;;-144.99;91.40;52219.81;5065322;28;20246;-73
2021/06/06 00:11:14;;;;;;;50.33;45.43;;;;;;;-144.99;92.34;52193.31;5067522;28;20248;-75
2021/06/06 00:13:50;;;;;;;54.10;48.70;;;;;;;-144.99;92.94;52232.03;5075131;28;20297;-74
2021/06/06 00:16:25;;;;;;;45.70;41.50;;;;;;;-144.99;92.47;52240.19;5064902;28;20211;-74
2021/06/06 00:19:00;;;;;;;51.67;46.90;;;;;;;-144.99;92.96;52244.28;5066476;28;20209;-75
2021/06/06 00:21:37;;;;;;;50.00;45.23;;;;;;;-144.99;92.80;52219.81;5062989;28;20197;-75
2021/06/06 00:24:14;;;;;;;50.07;44.80;;;;;;;-144.99;92.98;52240.19;5058658;28;20232;-74
2021/06/06 00:26:48;;;;;;;50.10;45.27;;;;;;;-144.99;93.00;52193.31;5063510;28;20561;-74
2021/06/06 00:29:23;;;;;;;52.37;47.30;;;;;;;-144.99;93.61;52236.13;5062730;28;20710;-74
2021/06/06 00:31:58;;;;;;;48.17;43.67;;;;;;;-144.99;93.63;52203.50;5069869;28;20219;-74
2021/06/06 00:34:30;;;;;;;52.30;46.83;;;;;;;-144.99;93.76;52183.13;5066976;28;20222;-73
2021/06/06 00:37:22;;;;;;;51.70;46.37;;;;;;;-144.99;93.73;52199.44;5061729;28;20209;-76
2021/06/06 00:39:57;;;;;;;51.60;46.57;;;;;;;-144.99;93.66;52232.03;5066674;28;20266;-75
2021/06/06 00:42:32;;;;;;;50.57;45.57;;;;;;;-144.99;93.99;52219.81;5072349;28;20219;-74
2021/06/06 00:45:09;;;;;;;53.93;48.77;;;;;;;-144.99;94.08;52203.50;5069846;28;20226;-76
2021/06/06 00:47:41;;;;;;;52.17;46.67;;;;;;;-144.99;94.13;52244.28;5072445;28;20224;-74
2021/06/06 00:50:19;;;;;;;50.60;45.30;;;;;;;-144.99;93.94;52191.28;5066316;28;20287;-74
2021/06/06 00:53:09;;;;;;;50.57;45.33;;;;;;;-144.99;93.64;52236.13;5066035;28;20269;-74
2021/06/06 00:55:45;;;;;;;54.87;49.40;;;;;;;-144.99;93.85;52207.59;5060427;28;20205;-75
2021/06/06 00:58:18;;;;;;;53.80;48.23;;;;;;;-144.99;94.17;52240.19;5070663;28;20205;-75
2021/06/06 01:00:57;;;;;;;51.40;46.37;;;;;;;-144.99;94.55;52248.34;5068471;28;20279;-75
2021/06/06 01:03:32;;;;;;;50.43;45.40;;;;;;;-144.99;94.82;52195.34;5069799;28;20235;-74
2021/06/06 01:06:08;;;;;;;57.20;50.73;;;;;;;-144.99;95.54;52225.94;5062761;28;20266;-75
2021/06/06 01:08:45;;;;;;;54.27;49.07;;;;;;;-144.99;95.66;52227.97;5056296;28;20312;-74
2021/06/06 01:11:25;;;;;;;54.23;48.67;;;;;;;-144.99;95.38;52223.88;5071808;28;20303;-75
2021/06/06 01:14:04;;;;;;;47.83;43.07;;;;;;;-144.99;95.39;52195.34;5063107;28;20221;-76
2021/06/06 01:16:42;;;;;;;52.63;47.00;;;;;;;-144.99;95.14;52219.81;5068844;28;20299;-75
2021/06/06 01:19:30;;;;;;;55.87;50.13;;;;;;;-144.99;94.85;52201.47;5059563;28;20224;-75
2021/06/06 01:22:16;;;;;;;48.43;43.60;;;;;;;-144.99;94.70;52201.47;5063397;28;20217;-73
2021/06/06 01:24:55;;;;;;;47.40;42.33;;;;;;;-144.99;94.60;52195.34;5068958;28;20260;-76
2021/06/06 01:27:32;;;;;;;55.77;49.63;;;;;;;-144.99;94.83;52211.66;5059865;28;20228;-74
2021/06/06 01:30:15;;;;;;;54.80;48.93;;;;;;;-144.99;94.74;52215.75;5064210;28;20216;-76
2021/06/06 01:32:58;;;;;;;54.03;48.33;;;;;;;-144.99;94.51;52207.59;5069163;28;20240;-75
2021/06/06 01:35:38;;;;;;;53.30;45.80;;;;;;;-144.99;94.68;52195.34;5066209;28;20691;-76
2021/06/06 01:38:20;;;;;;;58.67;52.50;;;;;;;-144.99;95.08;52240.19;5066425;28;20274;-74
2021/06/06 01:41:01;;;;;;;54.83;48.70;;;;;;;-144.99;95.13;52240.19;5069019;28;20246;-75
2021/06/06 01:43:37;;;;;;;55.70;50.27;;;;;;;-144.99;95.28;52185.16;5070592;28;20243;-74
2021/06/06 01:46:15;;;;;;;51.30;45.90;;;;;;;-144.99;95.39;52211.66;5057683;28;20228;-73
2021/06/06 01:48:52;;;;;;;56.83;51.00;;;;;;;-144.99;95.32;52230.00;5067433;28;20213;-74
2021/06/06 01:51:27;;;;;;;54.23;48.40;;;;;;;-144.99;94.97;52191.28;5064949;28;20234;-75
2021/06/06 01:54:01;;;;;;;53.67;48.17;;;;;;;-144.99;94.93;52207.59;5062017;28;20562;-75
2021/06/06 01:56:41;;;;;;;49.17;43.97;;;;;;;-144.99;94.98;52250.38;5070742;28;20625;-75
2021/06/06 01:59:22;;;;;;;53.03;47.37;;;;;;;-144.99;94.72;52252.44;5078910;28;20243;-74
2021/06/06 02:01:57;;;;;;;54.23;48.23;;;;;;;-144.99;94.85;52174.97;5066104;28;20210;-73
2021/06/06 02:04:31;;;;;;;56.63;49.20;;;;;;;-144.99;95.08;52260.56;5065950;28;20315;-73
2021/06/06 02:07:10;;;;;;;56.53;50.73;;;;;;;-144.99;95.19;52203.50;5061899;28;20231;-72
2021/06/06 02:09:50;;;;;;;52.60;47.17;;;;;;;-144.99;95.18;52219.81;5060609;28;20205;-74
2021/06/06 02:12:32;;;;;;;59.43;52.70;;;;;;;-144.99;95.55;52203.50;5069006;28;20224;-75
2021/06/06 02:15:08;;;;;;;54.27;48.67;;;;;;;-144.99;95.64;52227.97;5059965;28;20214;-72
2021/06/06 02:17:39;;;;;;;55.60;49.60;;;;;;;-144.99;95.46;52207.59;5056234;28;20204;-74
2021/06/06 02:20:17;;;;;;;57.37;51.23;;;;;;;-144.99;95.36;52223.88;5063043;28;20196;-72
2021/06/06 02:22:51;;;;;;;53.53;48.20;;;;;;;-144.99;95.45;52219.81;5069215;28;20213;-74
2021/06/06 02:25:26;;;;;;;57.70;50.13;;;;;;;-144.99;95.14;52236.13;5055971;28;20565;-75
2021/06/06 02:28:14;;;;;;;50.27;45.10;;;;;;;-144.99;95.00;52211.66;5054875;28;20224;-76
2021/06/06 02:30:54;;;;;;;52.33;46.70;;;;;;;-144.99;94.71;52207.59;5063930;28;20624;-76
2021/06/06 02:33:36;;;;;;;54.83;49.17;;;;;;;-144.99;94.49;52219.81;5071357;28;20447;-76
2021/06/06 02:36:13;;;;;;;56.67;50.90;;;;;;;-144.99;94.38;52234.09;5082362;28;20185;-75
2021/06/06 02:38:50;;;;;;;58.70;52.63;;;;;;;-144.99;94.26;52244.28;5081653;28;20231;-76
2021/06/06 02:41:30;;;;;;;53.80;47.03;;;;;;;-144.99;94.60;52207.59;5081090;28;20219;-75
2021/06/06 02:44:15;;;;;;;48.80;44.03;;;;;;;-144.99;94.44;52223.88;5074325;28;20365;-75
2021/06/06 02:46:49;;;;;;;50.10;44.80;;;;;;;-144.99;94.39;52232.03;5062133;28;20228;-77
2021/06/06 02:49:28;;;;;;;51.33;46.00;;;;;;;-144.99;94.01;52227.97;5063420;28;20422;-76
2021/06/06 02:52:07;;;;;;;49.93;44.90;;;;;;;-144.99;93.70;52223.88;5064192;28;20308;-75
2021/06/06 02:54:47;;;;;;;51.60;45.23;;;;;;;-144.99;93.45;52211.66;5065266;28;20284;-75
2021/06/06 02:57:24;;;;;;;53.03;46.10;;;;;;;-144.99;93.55;52219.81;5070058;28;20231;-75
2021/06/06 03:00:05;;;;;;;55.23;49.03;;;;;;;-144.99;93.74;52215.75;5055185;28;20209;-75
2021/06/06 03:02:43;;;;;;;54.87;49.17;;;;;;;-144.99;93.85;52219.81;5065575;28;20223;-75
2021/06/06 03:05:22;;;;;;;51.27;45.77;;;;;;;-144.99;93.88;52217.78;5066658;28;20291;-76
2021/06/06 03:08:00;;;;;;;49.73;44.23;;;;;;;-144.99;93.94;52252.44;5052405;28;20274;-75
2021/06/06 03:10:37;;;;;;;54.27;48.37;;;;;;;-144.99;93.97;52215.75;5064749;28;20209;-75
2021/06/06 03:13:21;;;;;;;53.00;47.27;;;;;;;-144.99;94.12;52240.19;5067086;28;20747;-75
2021/06/06 03:16:02;;;;;;;47.67;42.73;;;;;;;-144.99;94.17;52240.19;5067084;28;20715;-74
2021/06/06 03:18:41;;;;;;;52.90;44.93;;;;;;;-144.99;94.05;52207.59;5067665;28;20262;-74
2021/06/06 03:21:18;;;;;;;51.00;45.60;;;;;;;-144.99;94.08;52248.34;5072373;28;20853;-73
2021/06/06 03:23:59;;;;;;;53.53;48.03;;;;;;;-144.99;94.04;52248.34;5080324;28;20248;-73
2021/06/06 03:26:35;;;;;;;52.17;46.83;;;;;;;-144.99;94.21;52193.31;5068102;28;20214;-72
2021/06/06 03:29:12;;;;;;;52.80;47.37;;;;;;;-144.99;94.30;52221.84;5057699;28;20208;-73
2021/06/06 03:31:53;;;;;;;53.57;47.97;;;;;;;-144.99;94.27;52207.59;5064045;28;20223;-74
2021/06/06 03:34:25;;;;;;;51.20;45.90;;;;;;;-144.99;94.39;52209.63;5065632;28;20277;-75
2021/06/06 03:37:00;;;;;;;52.83;47.17;;;;;;;-144.99;94.50;52232.03;5062760;28;20291;-74
2021/06/06 03:39:32;;;;;;;50.00;42.80;;;;;;;-144.99;94.31;52201.47;5061718;28;20209;-74
2021/06/06 03:42:07;;;;;;;55.73;49.70;;;;;;;-144.99;94.58;52244.28;5057499;28;20228;-75
2021/06/06 03:44:38;;;;;;;50.40;44.80;;;;;;;-144.99;94.35;52240.19;5065698;28;20297;-75
2021/06/06 03:47:14;;;;;;;47.90;42.97;;;;;;;-144.99;94.24;52244.28;5058777;28;20214;-77
2021/06/06 03:49:48;;;;;;;52.40;45.33;;;;;;;-144.99;94.17;52193.31;5061295;28;20562;-76
2021/06/06 03:52:23;;;;;;;51.53;46.27;;;;;;;-144.99;94.45;52232.03;5070479;28;20216;-76
2021/06/06 03:54:58;;;;;;;51.33;46.07;;;;;;;-144.99;94.66;52230.00;5068109;28;20224;-77
2021/06/06 03:57:33;;;;;;;51.27;45.77;;;;;;;-144.99;94.82;52221.84;5068236;28;20216;-75
2021/06/06 04:00:15;;;;;;;52.93;47.30;;;;;;;-144.99;94.79;52244.28;5071066;28;20318;-76
2021/06/06 04:02:48;;;;;;;47.27;42.23;;;;;;;-144.99;94.45;52223.88;5066642;28;20299;-76
2021/06/06 04:05:23;;;;;;;51.57;46.17;;;;;;;-144.99;94.55;52211.66;5067427;28;20552;-74
2021/06/06 04:07:58;;;;;;;53.80;42.80;;;;;;;-144.99;94.67;52223.88;5058369;28;20224;-75
2021/06/06 04:10:33;;;;;;;48.73;43.50;;;;;;;-144.99;94.71;52211.66;5057491;28;20229;-75
2021/06/06 04:13:08;;;;;;;47.53;42.63;;;;;;;-144.99;94.66;52232.03;5066350;28;20215;-75
2021/06/06 04:15:39;;;;;;;49.43;42.83;;;;;;;-144.99;94.32;52236.13;5067577;28;20205;-74
2021/06/06 04:18:22;;;;;;;47.23;42.20;;;;;;;-144.99;93.85;52240.19;5066057;28;20204;-74
2021/06/06 04:20:56;;;;;;;50.87;45.63;;;;;;;-144.99;93.76;52248.34;5072314;28;20345;-77
2021/06/06 04:23:31;;;;;;;46.40;41.40;;;;;;;-144.99;93.71;52254.47;5074142;28;20239;-77
2021/06/06 04:26:06;;;;;;;47.60;42.47;;;;;;;-144.99;93.66;52234.09;5061791;28;20205;-76
2021/06/06 04:28:38;;;;;;;44.80;40.30;;;;;;;-144.99;93.25;52215.75;5057520;28;20303;-76
2021/06/06 04:31:13;;;;;;;46.13;41.23;;;;;;;-144.99;93.38;52223.88;5062871;28;20297;-75
2021/06/06 04:34:05;;;;;;;45.37;40.80;;;;;;;-144.99;93.57;52227.97;5071401;28;20721;-75
2021/06/06 04:36:39;;;;;;;50.13;44.77;;;;;;;-144.99;94.04;52236.13;5064589;28;20203;-75
2021/06/06 04:39:12;;;;;;;44.50;39.40;;;;;;;-144.99;93.98;52223.88;5065146;28;20209;-75
2021/06/06 04:41:46;;;;;;;46.57;41.53;;;;;;;-144.99;94.22;52240.19;5067052;28;20542;-75
2021/06/06 04:44:21;;;;;;;50.23;44.97;;;;;;;-144.99;94.50;52232.03;5070946;28;20236;-75
2021/06/06 04:46:55;;;;;;;45.33;40.43;;;;;;;-144.99;94.63;52244.28;5059197;28;20307;-73
2021/06/06 04:49:31;;;;;;;44.80;39.17;;;;;;;-144.99;94.56;52240.19;5065755;28;20279;-75
2021/06/06 04:52:06;;;;;;;48.23;43.00;;;;;;;-144.99;94.68;52252.44;5064752;28;20200;-74
2021/06/06 04:54:40;;;;;;;45.27;40.60;;;;;;;-144.99;94.83;52264.66;5067313;28;20351;-75
2021/06/06 04:57:15;;;;;;;48.30;42.07;;;;;;;-144.99;94.85;52276.88;5064519;28;20207;-75
2021/06/06 04:59:49;;;;;;;49.93;44.63;;;;;;;-144.99;94.76;52256.50;5067841;28;20208;-75
2021/06/06 05:02:24;;;;;;;47.20;42.10;;;;;;;-144.99;95.46;52264.66;5070875;28;20226;-75
2021/06/06 05:05:00;;;;;;;42.87;38.53;;;;;;;-144.99;95.50;52215.75;5071308;28;20239;-75
2021/06/06 05:07:35;;;;;;;46.97;41.70;;;;;;;-144.99;95.89;52276.88;5056283;28;20225;-73
2021/06/06 05:10:11;;;;;;;48.63;42.27;;;;;;;-144.99;96.05;52232.03;5072908;28;20539;-74
2021/06/06 05:12:45;;;;;;;44.30;39.50;;;;;;;-144.99;96.15;52248.34;5069351;28;20205;-74
2021/06/06 05:15:22;;;;;;;50.13;42.77;;;;;;;-144.99;96.24;52236.13;5068650;28;20207;-73
2021/06/06 05:17:57;;;;;;;46.20;41.23;;;;;;;-144.99;96.47;52219.81;5059283;28;20254;-73
2021/06/06 05:20:35;;;;;;;44.53;38.23;;;;;;;-144.99;96.40;52258.53;5052945;28;20197;-72
2021/06/06 05:23:11;;;;;;;48.97;43.73;;;;;;;-144.99;96.47;52276.88;5063086;28;20232;-74
2021/06/06 05:25:46;;;;;;;45.73;40.87;;;;;;;-144.99;96.83;52240.19;5058606;28;20205;-75
2021/06/06 05:28:27;;;;;;;47.37;39.67;;;;;;;-144.99;96.56;52276.88;5064067;28;20263;-75
2021/06/06 05:31:02;;;;;;;44.80;38.50;;;;;;;-144.99;97.08;52221.84;5056488;28;20683;-74
2021/06/06 05:33:37;;;;;;;43.93;39.33;;;;;;;-144.99;96.87;52240.19;5065832;28;20324;-75
2021/06/06 05:36:14;;;;;;;42.70;37.63;;;;;;;-144.99;96.92;52240.19;5067533;28;20234;-75
2021/06/06 05:38:49;;;;;;;45.23;40.07;;;;;;;-144.99;97.26;52236.13;5060351;28;20220;-77
2021/06/06 05:41:23;;;;;;;45.83;39.37;;;;;;;-144.99;97.09;52240.19;5066745;28;20283;-76
2021/06/06 05:43:58;;;;;;;44.47;37.10;;;;;;;-144.99;97.03;52227.97;5056799;28;20482;-76
2021/06/06 05:46:34;;;;;;;42.13;37.70;;;;;;;-144.99;96.91;52211.66;5059208;28;20285;-74
2021/06/06 05:49:06;;;;;;;42.93;38.03;;;;;;;-144.99;97.06;52203.50;5068483;28;20306;-76
2021/06/06 05:51:39;;;;;;;42.33;37.20;;;;;;;-144.99;96.93;52223.88;5076125;28;20257;-74
2021/06/06 05:54:14;;;;;;;43.43;38.93;;;;;;;-144.99;96.76;52252.44;5084017;28;20221;-75
2021/06/06 05:56:46;;;;;;;41.97;37.33;;;;;;;-144.99;96.79;52280.97;5086942;28;20227;-74
2021/06/06 05:59:20;;;;;;;45.27;36.80;;;;;;;-144.99;97.03;52240.19;5074441;28;20613;-77
2021/06/06 06:01:54;;;;;;;45.23;36.30;;;;;;;-144.99;97.28;52199.44;5069710;28;20228;-77
2021/06/06 06:04:29;;;;;;;42.20;36.47;;;;;;;-144.99;97.11;52223.88;5069315;28;20247;-76
2021/06/06 06:07:05;;;;;;;42.83;37.13;;;;;;;-144.99;97.39;52240.19;5062177;28;20235;-76
2021/06/06 06:09:41;;;;;;;39.30;35.10;;;;;;;-144.99;97.34;52189.25;5065953;28;20659;-77
2021/06/06 06:12:16;;;;;;;39.63;35.70;;;;;;;-144.99;97.71;52217.78;5073298;28;20228;-78
2021/06/06 06:14:50;;;;;;;37.10;33.17;;;;;;;-144.99;97.51;52238.16;5070517;28;20228;-79
2021/06/06 06:17:25;;;;;;;40.33;36.03;;;;;;;-144.99;97.52;52240.19;5072002;28;20204;-78
2021/06/06 06:19:59;;;;;;;40.13;35.83;;;;;;;-144.99;97.76;52227.97;5071825;28;20209;-77
2021/06/06 06:22:39;;;;;;;37.93;33.93;;;;;;;-144.99;97.74;52260.56;5072890;28;20238;-77
2021/06/06 06:25:12;;;;;;;40.53;36.20;;;;;;;-144.99;97.84;52195.34;5068030;28;20204;-78
2021/06/06 06:27:47;;;;;;;35.90;32.30;;;;;;;-144.99;97.86;52207.59;5070307;28;20252;-76
2021/06/06 06:30:28;;;;;;;37.10;33.37;;;;;;;-144.99;97.95;52215.75;5062084;28;20295;-76
2021/06/06 06:33:00;;;;;;;38.13;33.93;;;;;;;-144.99;97.74;52268.72;5063572;28;20248;-75
2021/06/06 06:35:32;;;;;;;40.13;35.83;;;;;;;-144.99;97.55;52240.19;5063088;28;20273;-75
2021/06/06 06:38:10;;;;;;;37.07;33.10;;;;;;;-144.99;97.64;52232.03;5063991;28;20650;-75
2021/06/06 06:40:44;;;;;;;37.97;34.17;;;;;;;-144.99;97.41;52264.66;5058440;28;20236;-75
2021/06/06 06:43:19;;;;;;;36.83;32.67;;;;;;;-144.99;97.41;52191.28;5068725;28;20228;-75
2021/06/06 06:45:54;;;;;;;36.30;32.17;;;;;;;-144.99;97.39;52234.09;5059106;28;20201;-77
2021/06/06 06:48:31;;;;;;;36.63;33.07;;;;;;;-144.99;97.24;52219.81;5065756;28;20224;-76
2021/06/06 06:51:06;;;;;;;35.17;31.63;;;;;;;-144.99;96.63;52199.44;5066135;28;20212;-75
2021/06/06 06:53:46;;;;;;;39.80;35.10;;;;;;;-144.99;96.64;52234.09;5070449;28;20365;-75
2021/06/06 06:56:19;;;;;;;36.33;32.33;;;;;;;-144.99;96.70;52240.19;5062994;28;20350;-76
2021/06/06 06:58:51;;;;;;;41.43;36.37;;;;;;;-144.99;96.53;52195.34;5061334;28;20205;-73
2021/06/06 07:01:26;;;;;;;31.27;28.20;;;;;;;-144.99;96.44;52244.28;5069086;28;20210;-73
2021/06/06 07:04:01;;;;;;;32.27;28.87;;;;;;;-144.99;96.19;52223.88;5064986;28;20239;-73
2021/06/06 07:06:35;;;;;;;35.87;31.30;;;;;;;-144.99;96.07;52205.53;5065005;28;20210;-72
2021/06/06 07:09:12;;;;;;;33.73;30.33;;;;;;;-144.99;95.91;52225.94;5059829;28;20209;-73
2021/06/06 07:11:46;;;;;;;31.93;28.63;;;;;;;-144.99;95.80;52232.03;5066745;28;20193;-74
2021/06/06 07:14:21;;;;;;;34.50;30.00;;;;;;;-144.99;95.56;52195.34;5067800;28;20227;-74
2021/06/06 07:16:53;;;;;;;32.20;28.93;;;;;;;-144.99;95.06;52215.75;5064702;28;20216;-74
2021/06/06 07:19:28;;;;;;;34.67;28.47;;;;;;;-144.99;94.79;52207.59;5062326;28;20205;-72
2021/06/06 07:22:03;;;;;;;32.63;29.23;;;;;;;-144.99;94.41;52203.50;5061871;28;20220;-74
2021/06/06 07:24:39;;;;;;;32.53;29.07;;;;;;;-144.99;94.04;52207.59;5071770;28;20240;-73
2021/06/06 07:27:14;;;;;;;33.60;29.93;;;;;;;-144.99;93.53;52215.75;5068592;28;20308;-73
2021/06/06 07:29:51;;;;;;;32.57;29.00;;;;;;;-144.99;93.47;52199.44;5074283;28;20208;-72
2021/06/06 07:32:26;;;;;;;29.17;26.10;;;;;;;-144.99;93.52;52223.88;5078146;28;20292;-74
2021/06/06 07:35:02;;;;;;;31.20;28.00;;;;;;;-144.99;93.47;52244.28;5070929;28;20249;-74
2021/06/06 07:37:37;;;;;;;29.90;26.70;;;;;;;-144.99;93.19;52221.84;5071689;28;20278;-77
2021/06/06 07:40:16;;;;;;;32.17;28.73;;;;;;;-144.99;92.84;52207.59;5064994;28;20209;-76
2021/06/06 07:42:48;;;;;;;29.50;26.43;;;;;;;-144.99;92.63;52246.31;5069456;28;20237;-76
2021/06/06 07:45:24;;;;;;;28.80;25.83;;;;;;;-144.99;92.45;52227.97;5079205;28;20225;-75
2021/06/06 07:47:59;;;;;;;33.80;30.47;;;;;;;-144.99;92.52;52236.13;5074148;28;20212;-79
2021/06/06 07:50:38;;;;;;;34.30;30.87;;;;;;;-144.99;92.70;52227.97;5079059;28;20207;-76
2021/06/06 07:53:14;;;;;;;30.30;27.27;;;;;;;-144.99;91.31;52191.28;5077892;28;20251;-77
2021/06/06 07:55:50;;;;;;;29.80;26.70;;;;;;;-144.99;90.93;52221.84;5085704;28;20196;-76
2021/06/06 07:58:27;;;;;;;25.50;22.77;;;;;;;-144.99;91.28;52236.13;5079954;28;20229;-79
2021/06/06 08:01:02;;;;;;;26.97;24.17;;;;;;;-144.99;91.29;52236.13;5070823;28;20209;-77
2021/06/06 08:03:37;;;;;;;27.80;24.57;;;;;;;-144.99;91.57;52215.75;5077849;28;20228;-76
2021/06/06 08:06:14;;;;;;;26.70;23.90;;;;;;;-144.99;91.57;52225.94;5068792;28;20202;-76
2021/06/06 08:08:49;;;;;;;25.70;21.90;;;;;;;-144.99;91.86;52211.66;5062960;28;20226;-77
2021/06/06 08:11:28;;;;;;;26.60;23.40;;;;;;;-144.99;91.86;52227.97;5070815;28;20213;-77
2021/06/06 08:14:03;;;;;;;25.70;23.03;;;;;;;-144.99;92.03;52223.88;5076085;28;20237;-76
2021/06/06 08:16:38;;;;;;;25.60;23.10;;;;;;;-144.99;91.98;52203.50;5072895;28;20205;-77
2021/06/06 08:19:13;;;;;;;24.03;21.63;;;;;;;-144.99;91.51;52215.75;5071568;28;20217;-75
2021/06/06 08:21:48;;;;;;;25.83;23.00;;;;;;;-144.99;91.34;52232.03;5076125;28;20209;-78
2021/06/06 08:24:23;;;;;;;25.20;21.73;;;;;;;-144.99;91.22;52199.44;5064829;28;20310;-77
2021/06/06 08:26:59;;;;;;;28.03;25.03;;;;;;;-144.99;90.90;52227.97;5072796;28;20243;-78
2021/06/06 08:29:33;;;;;;;23.73;21.43;;;;;;;-144.99;90.42;52199.44;5071739;28;20297;-77
2021/06/06 08:32:06;;;;;;;22.30;20.10;;;;;;;-144.99;90.18;52227.97;5069924;28;20216;-77
2021/06/06 08:34:49;;;;;;;27.03;24.33;;;;;;;-144.99;89.98;52223.88;5071026;28;20228;-77
2021/06/06 08:37:24;;;;;;;23.87;21.53;;;;;;;-144.99;89.55;52207.59;5070665;28;20313;-77
2021/06/06 08:39:55;;;;;;;22.97;20.53;;;;;;;-144.99;89.21;52223.88;5065161;28;20241;-77
2021/06/06 08:42:35;;;;;;;24.97;22.47;;;;;;;-144.99;89.18;52211.66;5066533;28;20209;-79
2021/06/06 08:45:19;;;;;;;26.90;24.13;;;;;;;-144.99;89.02;52191.28;5071262;28;20203;-77
2021/06/06 08:47:56;;;;;;;24.60;22.13;;;;;;;-144.99;88.97;52207.59;5060129;28;20235;-78
2021/06/06 08:50:37;;;;;;;24.03;21.47;;;;;;;-144.99;88.87;52234.09;5068573;28;20226;-75
2021/06/06 08:53:18;;;;;;;23.37;20.87;;;;;;;-144.99;88.58;52207.59;5064176;28;20237;-77
2021/06/06 08:56:17;;;;;;;21.80;19.47;;;;;;;-144.99;88.30;52221.84;5075833;28;20833;-77
2021/06/06 08:58:58;;;;;;;25.23;22.63;;;;;;;-144.99;88.21;52227.97;5078275;28;20218;-76
2021/06/06 09:01:45;;;;;;;21.73;19.50;;;;;;;-144.99;88.25;52191.28;5071225;28;20241;-77
2021/06/06 09:04:23;;;;;;;21.67;19.47;;;;;;;-144.99;88.31;52236.13;4736298;28;10001238;-72
2021/06/06 09:07:02;;;;;;;21.27;19.07;;;;;;;-144.99;88.29;52238.16;5072118;28;20563;-73
2021/06/06 09:09:40;;;;;;;21.97;19.10;;;;;;;-144.99;88.16;52227.97;5073510;28;20291;-73
2021/06/06 09:12:18;;;;;;;23.33;21.00;;;;;;;-144.99;87.78;52207.59;5060228;28;20313;-71
2021/06/06 09:14:59;;;;;;;26.23;22.80;;;;;;;-144.99;87.60;52242.22;5061489;28;20238;-73
2021/06/06 09:17:47;;;;;;;25.03;22.43;;;;;;;-144.99;86.96;52195.34;5062347;28;20638;-72
2021/06/06 09:20:36;;;;;;;26.00;22.43;;;;;;;-144.99;86.56;52223.88;5061477;28;20275;-72
2021/06/06 09:23:15;;;;;;;23.73;21.20;;;;;;;-144.99;86.19;52219.81;5059647;28;20234;-72
2021/06/06 09:26:01;;;;;;;23.03;20.83;;;;;;;-144.99;86.19;52215.75;5068419;28;20222;-73
2021/06/06 09:28:37;;;;;;;24.17;21.63;;;;;;;-144.99;85.84;52189.25;5062374;28;20227;-73
2021/06/06 09:31:23;;;;;;;24.90;22.40;;;;;;;-144.99;85.59;52185.16;5062917;28;20222;-74
2021/06/06 09:34:07;;;;;;;22.00;19.63;;;;;;;-144.99;85.45;52215.75;5067137;28;20257;-75
2021/06/06 09:36:44;;;;;;;24.47;22.00;;;;;;;-144.99;85.29;52232.03;5051446;28;20207;-73
2021/06/06 09:39:27;;;;;;;23.90;19.67;;;;;;;-144.99;84.78;52170.91;5068570;28;21213;-76
2021/06/06 09:42:04;;;;;;;23.10;20.23;;;;;;;-144.99;83.67;52223.88;5064382;28;20212;-76
2021/06/06 09:44:39;;;;;;;23.67;21.23;;;;;;;-144.99;83.11;52203.50;5068339;28;20238;-77
2021/06/06 09:47:19;;;;;;;24.07;21.27;;;;;;;-144.99;83.17;52191.28;5063112;28;20239;-76
2021/06/06 09:50:03;;;;;;;25.57;22.77;;;;;;;-144.99;83.19;52207.59;5073217;28;20326;-77
2021/06/06 09:52:47;;;;;;;23.70;21.33;;;;;;;-144.99;82.99;52168.84;5079980;28;20223;-76
2021/06/06 09:55:27;;;;;;;26.93;22.80;;;;;;;-144.99;82.28;52232.03;5069521;28;20731;-77
2021/06/06 09:58:15;;;;;;;23.77;21.23;;;;;;;-144.99;82.23;52223.88;5078829;28;20293;-78
2021/06/06 10:00:52;;;;;;;29.60;24.57;;;;;;;-144.99;82.00;52189.25;5071081;28;20213;-77
2021/06/06 10:03:40;;;;;;;27.97;25.13;;;;;;;-144.99;81.86;52219.81;5074353;28;20235;-77
2021/06/06 10:06:28;;;;;;;25.93;21.17;;;;;;;-144.99;81.90;52191.28;5073357;28;20314;-77
2021/06/06 10:09:14;;;;;;;24.87;22.23;;;;;;;-144.99;81.73;52174.97;5067281;28;20243;-75
2021/06/06 10:12:00;;;;;;;26.13;23.00;;;;;;;-144.99;81.88;52166.81;5073880;28;20213;-76
2021/06/06 10:14:41;;;;;;;22.03;19.87;;;;;;;-144.99;81.77;52187.19;5066620;28;20235;-76
2021/06/06 10:17:17;;;;;;;26.73;23.93;;;;;;;-144.99;80.58;52223.88;5062994;28;20238;-75
2021/06/06 10:19:57;;;;;;;23.87;21.40;;;;;;;-144.99;80.63;52189.25;5062012;28;20235;-75
2021/06/06 10:22:37;;;;;;;23.20;20.70;;;;;;;-144.99;80.34;52140.31;5067325;28;20207;-77
2021/06/06 10:25:16;;;;;;;29.27;24.40;;;;;;;-144.99;80.25;52170.91;5070180;28;20222;-74
2021/06/06 10:28:08;;;;;;;24.86;21.43;;;;;;;-144.99;80.19;52174.97;5063428;28;10000521;-74
2021/06/06 10:30:43;;;;;;;25.70;22.03;;;;;;;-144.99;79.97;52191.28;5053411;28;20332;-72
2021/06/06 10:33:26;;;;;;;25.80;23.30;;;;;;;-144.99;79.10;52191.28;5062686;28;20288;-73
2021/06/06 10:36:02;;;;;;;26.20;22.83;;;;;;;-144.99;79.28;52162.75;5058188;28;20690;-73
2021/06/06 10:38:41;;;;;;;22.97;20.77;;;;;;;-144.99;78.49;52148.47;5068172;28;20215;-75
2021/06/06 10:41:23;;;;;;;24.47;20.60;;;;;;;-144.99;77.71;52179.06;5068014;28;20470;-74
2021/06/06 10:44:02;;;;;;;24.93;22.43;;;;;;;-144.99;77.37;52187.19;5057334;28;20679;-74
2021/06/06 10:46:44;;;;;;;26.23;23.43;;;;;;;-144.99;75.98;52205.53;5067463;28;20207;-75
2021/06/06 10:49:23;;;;;;;24.10;21.60;;;;;;;-144.99;75.81;52179.06;5067169;28;20212;-74
2021/06/06 10:52:04;;;;;;;22.17;19.97;;;;;;;-144.99;76.84;52152.56;5067082;28;20212;-73
2021/06/06 10:54:45;;;;;;;24.53;22.03;;;;;;;-144.99;76.80;52174.97;5067925;28;20228;-74
2021/06/06 10:57:31;;;;;;;25.10;22.70;;;;;;;-144.99;76.46;52191.28;5067979;28;20249;-74
2021/06/06 11:00:30;;;;;;;26.33;23.73;;;;;;;-144.99;76.91;52195.34;5071101;28;20216;-74
2021/06/06 11:03:08;;;;;;;25.53;22.87;;;;;;;-144.99;77.25;52201.47;5058877;28;20227;-75
2021/06/06 11:05:54;;;;;;;25.87;23.23;;;;;;;-144.99;76.61;52174.97;5071876;28;20598;-73
2021/06/06 11:08:54;;;;;;;25.23;22.13;;;;;;;-144.99;77.15;52199.44;5056954;28;20224;-72
2021/06/06 11:11:35;;;;;;;24.83;21.07;;;;;;;-144.99;77.16;52191.28;5026388;28;20233;-72
2021/06/06 11:14:21;;;;;;;23.70;21.33;;;;;;;-144.99;76.28;52179.06;5067108;28;20240;-73
2021/06/06 11:16:57;;;;;;;26.73;23.83;;;;;;;-144.99;76.68;52177.00;5063388;28;20209;-75
2021/06/06 11:19:38;;;;;;;24.03;21.57;;;;;;;-144.99;77.18;52219.81;5059117;28;20211;-73
2021/06/06 11:22:30;;;;;;;24.80;22.17;;;;;;;-144.99;77.56;52227.97;5067529;28;20689;-72
2021/06/06 11:25:30;;;;;;;27.93;23.77;;;;;;;-144.99;78.13;52162.75;5067047;28;20229;-75
2021/06/06 11:28:08;;;;;;;28.20;25.10;;;;;;;-144.99;78.39;52236.13;5064935;28;20261;-72
2021/06/06 11:30:45;;;;;;;27.47;24.73;;;;;;;-144.99;79.01;52223.88;5060172;28;20351;-73
2021/06/06 11:33:32;;;;;;;25.63;22.87;;;;;;;-144.99;79.17;52199.44;5073004;28;20462;-72
2021/06/06 11:36:07;;;;;;;31.03;25.83;;;;;;;-144.99;79.14;52211.66;5071572;28;20631;-73
2021/06/06 11:38:45;;;;;;;24.73;22.13;;;;;;;-144.99;79.33;52211.66;5071628;28;20215;-72
2021/06/06 11:41:35;;;;;;;26.23;23.40;;;;;;;-144.99;79.80;52207.59;5077083;28;20216;-72
2021/06/06 11:44:28;;;;;;;26.00;23.30;;;;;;;-144.99;79.67;52215.75;5055802;28;20281;-73
2021/06/06 11:47:09;;;;;;;31.00;25.73;;;;;;;-144.99;79.90;52183.13;5060566;28;20217;-72
2021/06/06 11:49:57;;;;;;;26.53;23.70;;;;;;;-144.99;80.02;52223.88;5062577;28;20291;-72